Airport View

Enter AWOS ICAO identifier for current METAR.

ex. KFNL

KRCV 030035Z AUTO 11015G19KT 10SM SCT100 21/07 A3034 RMK AO2 T02140070

3 Jun 2020 01:01

Frequency: 118.275

Phone: 719-657-9017

Other Area AWOS: K04V - KCPW - KALS - KPSO

TAF KALS 022331Z 0300/0324 14010KT P6SM VCTS SCT080CB BKN150 FM030500 01009KT P6SM FEW080 SCT150 FM030900 VRB04KT P6SM FEW250 FM032100 29012KT P6SM VCTS SCT080CB BKN150